Terminal Aerodrome Forecast
Issued by NWS Mt. Holly, NJ

Home | Current Version | Previous Version | Text Only | Print | Product List | Glossary On
Versions: 1 2 3 4 5 6 7 8 9 10 11 12 13 14 15 16
000
FTUS41 KPHI 201100
TAFILG
TAF
KILG 201134Z 2012/2112 36005KT P6SM OVC030
     FM201600 34005KT P6SM SCT030 BKN200
     FM210000 VRB02KT P6SM SCT030 BKN100=

USA.gov is the U.S. government's official web portal to all federal, state and local government web resources and services.